sensor_id;sensor_type;location;lat;lon;timestamp;P1;durP1;ratioP1;P2;durP2;ratioP2
19221;SDS011;9745;50.828;4.378;2023-07-29T00:01:06;3.90;;;1.10;;
19221;SDS011;9745;50.828;4.378;2023-07-29T00:03:32;1.77;;;1.10;;
19221;SDS011;9745;50.828;4.378;2023-07-29T00:05:58;4.70;;;1.53;;
19221;SDS011;9745;50.828;4.378;2023-07-29T00:08:24;3.17;;;1.23;;
19221;SDS011;9745;50.828;4.378;2023-07-29T00:10:50;2.03;;;1.27;;
19221;SDS011;9745;50.828;4.378;2023-07-29T00:13:16;1.47;;;0.80;;
19221;SDS011;9745;50.828;4.378;2023-07-29T00:15:42;5.20;;;1.40;;
19221;SDS011;9745;50.828;4.378;2023-07-29T00:18:08;2.03;;;1.23;;
19221;SDS011;9745;50.828;4.378;2023-07-29T00:20:34;1.37;;;1.03;;
19221;SDS011;9745;50.828;4.378;2023-07-29T00:23:00;1.77;;;1.23;;
19221;SDS011;9745;50.828;4.378;2023-07-29T00:25:27;4.80;;;1.60;;
19221;SDS011;9745;50.828;4.378;2023-07-29T00:27:56;5.87;;;1.93;;
19221;SDS011;9745;50.828;4.378;2023-07-29T00:30:22;1.30;;;1.17;;
19221;SDS011;9745;50.828;4.378;2023-07-29T00:32:48;3.00;;;1.33;;
19221;SDS011;9745;50.828;4.378;2023-07-29T00:35:14;1.97;;;1.40;;
19221;SDS011;9745;50.828;4.378;2023-07-29T00:37:40;1.97;;;1.40;;
19221;SDS011;9745;50.828;4.378;2023-07-29T00:40:20;2.47;;;1.40;;
19221;SDS011;9745;50.828;4.378;2023-07-29T00:42:46;2.63;;;1.10;;
19221;SDS011;9745;50.828;4.378;2023-07-29T00:45:12;2.80;;;1.27;;
19221;SDS011;9745;50.828;4.378;2023-07-29T00:47:38;5.37;;;1.33;;
19221;SDS011;9745;50.828;4.378;2023-07-29T00:50:05;2.90;;;1.80;;
19221;SDS011;9745;50.828;4.378;2023-07-29T00:52:31;5.40;;;1.50;;
19221;SDS011;9745;50.828;4.378;2023-07-29T00:54:57;3.27;;;1.83;;
19221;SDS011;9745;50.828;4.378;2023-07-29T00:57:23;4.07;;;2.10;;
19221;SDS011;9745;50.828;4.378;2023-07-29T00:59:50;3.80;;;1.80;;
19221;SDS011;9745;50.828;4.378;2023-07-29T01:02:16;2.20;;;1.40;;
19221;SDS011;9745;50.828;4.378;2023-07-29T01:04:42;5.80;;;1.50;;
19221;SDS011;9745;50.828;4.378;2023-07-29T01:09:43;2.20;;;1.30;;
19221;SDS011;9745;50.828;4.378;2023-07-29T01:12:17;6.83;;;1.40;;
19221;SDS011;9745;50.828;4.378;2023-07-29T01:17:13;4.73;;;2.53;;
19221;SDS011;9745;50.828;4.378;2023-07-29T01:20:00;3.00;;;2.17;;
19221;SDS011;9745;50.828;4.378;2023-07-29T01:22:31;3.27;;;1.50;;
19221;SDS011;9745;50.828;4.378;2023-07-29T01:24:58;3.20;;;1.40;;
19221;SDS011;9745;50.828;4.378;2023-07-29T01:27:24;4.63;;;1.47;;
19221;SDS011;9745;50.828;4.378;2023-07-29T01:29:51;3.20;;;1.73;;
19221;SDS011;9745;50.828;4.378;2023-07-29T01:32:20;3.87;;;1.50;;
19221;SDS011;9745;50.828;4.378;2023-07-29T01:34:48;3.43;;;1.50;;
19221;SDS011;9745;50.828;4.378;2023-07-29T01:37:19;2.03;;;1.47;;
19221;SDS011;9745;50.828;4.378;2023-07-29T01:39:46;3.03;;;1.57;;
19221;SDS011;9745;50.828;4.378;2023-07-29T01:42:13;3.53;;;1.60;;
19221;SDS011;9745;50.828;4.378;2023-07-29T01:44:39;3.20;;;2.53;;
19221;SDS011;9745;50.828;4.378;2023-07-29T01:47:07;3.40;;;1.50;;
19221;SDS011;9745;50.828;4.378;2023-07-29T01:49:33;3.00;;;1.50;;
19221;SDS011;9745;50.828;4.378;2023-07-29T01:51:59;3.10;;;1.40;;
19221;SDS011;9745;50.828;4.378;2023-07-29T01:54:25;3.87;;;1.60;;
19221;SDS011;9745;50.828;4.378;2023-07-29T01:56:51;1.70;;;1.47;;
19221;SDS011;9745;50.828;4.378;2023-07-29T01:59:17;6.17;;;1.43;;
19221;SDS011;9745;50.828;4.378;2023-07-29T02:01:43;6.10;;;1.50;;
19221;SDS011;9745;50.828;4.378;2023-07-29T02:04:11;1.47;;;1.33;;
19221;SDS011;9745;50.828;4.378;2023-07-29T02:06:37;5.03;;;1.70;;
19221;SDS011;9745;50.828;4.378;2023-07-29T02:09:03;3.90;;;1.60;;
19221;SDS011;9745;50.828;4.378;2023-07-29T02:11:29;6.97;;;1.80;;
19221;SDS011;9745;50.828;4.378;2023-07-29T02:13:55;2.97;;;1.77;;
19221;SDS011;9745;50.828;4.378;2023-07-29T02:16:21;4.37;;;1.57;;
19221;SDS011;9745;50.828;4.378;2023-07-29T02:18:47;2.90;;;1.57;;
19221;SDS011;9745;50.828;4.378;2023-07-29T02:21:14;2.87;;;1.40;;
19221;SDS011;9745;50.828;4.378;2023-07-29T02:23:40;3.20;;;1.47;;
19221;SDS011;9745;50.828;4.378;2023-07-29T02:26:06;2.73;;;1.70;;
19221;SDS011;9745;50.828;4.378;2023-07-29T02:28:32;2.30;;;1.50;;
19221;SDS011;9745;50.828;4.378;2023-07-29T02:33:40;2.77;;;1.60;;
19221;SDS011;9745;50.828;4.378;2023-07-29T02:36:06;5.93;;;1.47;;
19221;SDS011;9745;50.828;4.378;2023-07-29T02:38:32;2.00;;;1.30;;
19221;SDS011;9745;50.828;4.378;2023-07-29T02:40:58;2.37;;;1.53;;
19221;SDS011;9745;50.828;4.378;2023-07-29T02:43:24;3.70;;;1.50;;
19221;SDS011;9745;50.828;4.378;2023-07-29T02:45:50;2.00;;;1.40;;
19221;SDS011;9745;50.828;4.378;2023-07-29T02:48:16;3.33;;;1.83;;
19221;SDS011;9745;50.828;4.378;2023-07-29T02:50:42;4.27;;;1.57;;
19221;SDS011;9745;50.828;4.378;2023-07-29T02:53:08;2.67;;;1.30;;
19221;SDS011;9745;50.828;4.378;2023-07-29T02:55:34;2.43;;;1.60;;
19221;SDS011;9745;50.828;4.378;2023-07-29T02:58:01;5.07;;;1.40;;
19221;SDS011;9745;50.828;4.378;2023-07-29T03:00:26;3.20;;;1.60;;
19221;SDS011;9745;50.828;4.378;2023-07-29T03:02:52;5.53;;;1.47;;
19221;SDS011;9745;50.828;4.378;2023-07-29T03:05:19;2.87;;;1.30;;
19221;SDS011;9745;50.828;4.378;2023-07-29T03:07:44;3.87;;;1.40;;
19221;SDS011;9745;50.828;4.378;2023-07-29T03:10:10;5.03;;;1.47;;
19221;SDS011;9745;50.828;4.378;2023-07-29T03:12:36;2.50;;;1.43;;
19221;SDS011;9745;50.828;4.378;2023-07-29T03:15:02;3.00;;;1.70;;
19221;SDS011;9745;50.828;4.378;2023-07-29T03:17:29;3.70;;;1.67;;
19221;SDS011;9745;50.828;4.378;2023-07-29T03:19:55;4.87;;;1.43;;
19221;SDS011;9745;50.828;4.378;2023-07-29T03:22:21;3.23;;;1.50;;
19221;SDS011;9745;50.828;4.378;2023-07-29T03:24:46;3.50;;;1.73;;
19221;SDS011;9745;50.828;4.378;2023-07-29T03:27:13;3.53;;;1.70;;
19221;SDS011;9745;50.828;4.378;2023-07-29T03:29:40;3.90;;;1.60;;
19221;SDS011;9745;50.828;4.378;2023-07-29T03:32:06;2.43;;;1.73;;
19221;SDS011;9745;50.828;4.378;2023-07-29T03:34:33;2.47;;;1.57;;
19221;SDS011;9745;50.828;4.378;2023-07-29T03:36:59;4.20;;;1.77;;
19221;SDS011;9745;50.828;4.378;2023-07-29T03:39:25;3.27;;;1.90;;
19221;SDS011;9745;50.828;4.378;2023-07-29T03:41:51;5.10;;;1.87;;
19221;SDS011;9745;50.828;4.378;2023-07-29T03:44:17;2.60;;;1.50;;
19221;SDS011;9745;50.828;4.378;2023-07-29T03:46:46;3.23;;;1.70;;
19221;SDS011;9745;50.828;4.378;2023-07-29T03:49:12;2.13;;;1.70;;
19221;SDS011;9745;50.828;4.378;2023-07-29T03:51:38;4.10;;;1.50;;
19221;SDS011;9745;50.828;4.378;2023-07-29T03:54:05;2.47;;;1.30;;
19221;SDS011;9745;50.828;4.378;2023-07-29T03:56:31;4.37;;;1.90;;
19221;SDS011;9745;50.828;4.378;2023-07-29T03:59:02;3.57;;;1.60;;
19221;SDS011;9745;50.828;4.378;2023-07-29T04:01:28;1.60;;;1.20;;
19221;SDS011;9745;50.828;4.378;2023-07-29T04:03:54;2.60;;;1.70;;
19221;SDS011;9745;50.828;4.378;2023-07-29T04:06:20;2.50;;;1.60;;
19221;SDS011;9745;50.828;4.378;2023-07-29T04:08:47;2.57;;;1.40;;
19221;SDS011;9745;50.828;4.378;2023-07-29T04:11:13;2.40;;;1.67;;
19221;SDS011;9745;50.828;4.378;2023-07-29T04:13:39;3.30;;;1.63;;
19221;SDS011;9745;50.828;4.378;2023-07-29T04:16:06;5.00;;;1.63;;
19221;SDS011;9745;50.828;4.378;2023-07-29T04:18:32;6.50;;;1.70;;
19221;SDS011;9745;50.828;4.378;2023-07-29T04:20:58;4.30;;;1.83;;
19221;SDS011;9745;50.828;4.378;2023-07-29T04:23:24;3.10;;;1.50;;
19221;SDS011;9745;50.828;4.378;2023-07-29T04:25:50;2.03;;;1.50;;
19221;SDS011;9745;50.828;4.378;2023-07-29T04:28:16;2.43;;;1.73;;
19221;SDS011;9745;50.828;4.378;2023-07-29T04:30:42;3.60;;;1.70;;
19221;SDS011;9745;50.828;4.378;2023-07-29T04:33:08;1.43;;;1.10;;
19221;SDS011;9745;50.828;4.378;2023-07-29T04:35:34;3.87;;;1.83;;
19221;SDS011;9745;50.828;4.378;2023-07-29T04:38:00;3.23;;;1.83;;
19221;SDS011;9745;50.828;4.378;2023-07-29T04:40:26;4.23;;;2.37;;
19221;SDS011;9745;50.828;4.378;2023-07-29T04:42:52;4.83;;;1.83;;
19221;SDS011;9745;50.828;4.378;2023-07-29T04:45:18;3.87;;;1.60;;
19221;SDS011;9745;50.828;4.378;2023-07-29T04:47:44;5.77;;;1.63;;
19221;SDS011;9745;50.828;4.378;2023-07-29T04:50:10;3.63;;;1.60;;
19221;SDS011;9745;50.828;4.378;2023-07-29T04:52:36;3.47;;;1.23;;
19221;SDS011;9745;50.828;4.378;2023-07-29T04:55:02;2.13;;;1.20;;
19221;SDS011;9745;50.828;4.378;2023-07-29T04:57:28;2.53;;;1.50;;
19221;SDS011;9745;50.828;4.378;2023-07-29T04:59:54;3.73;;;1.60;;
19221;SDS011;9745;50.828;4.378;2023-07-29T05:02:20;5.03;;;1.63;;
19221;SDS011;9745;50.828;4.378;2023-07-29T05:04:46;3.30;;;1.50;;
19221;SDS011;9745;50.828;4.378;2023-07-29T05:07:12;2.50;;;1.80;;
19221;SDS011;9745;50.828;4.378;2023-07-29T05:09:38;3.17;;;1.70;;
19221;SDS011;9745;50.828;4.378;2023-07-29T05:12:04;2.20;;;1.47;;
19221;SDS011;9745;50.828;4.378;2023-07-29T05:14:30;5.13;;;1.47;;
19221;SDS011;9745;50.828;4.378;2023-07-29T05:16:56;2.80;;;1.40;;
19221;SDS011;9745;50.828;4.378;2023-07-29T05:19:22;3.43;;;1.40;;
19221;SDS011;9745;50.828;4.378;2023-07-29T05:21:48;2.40;;;1.20;;
19221;SDS011;9745;50.828;4.378;2023-07-29T05:24:14;1.47;;;1.23;;
19221;SDS011;9745;50.828;4.378;2023-07-29T05:26:40;3.70;;;1.77;;
19221;SDS011;9745;50.828;4.378;2023-07-29T05:29:06;2.40;;;1.33;;
19221;SDS011;9745;50.828;4.378;2023-07-29T05:31:32;2.40;;;1.40;;
19221;SDS011;9745;50.828;4.378;2023-07-29T05:33:58;3.57;;;1.20;;
19221;SDS011;9745;50.828;4.378;2023-07-29T05:36:24;3.57;;;1.33;;
19221;SDS011;9745;50.828;4.378;2023-07-29T05:38:51;1.97;;;1.30;;
19221;SDS011;9745;50.828;4.378;2023-07-29T05:41:17;4.03;;;1.23;;
19221;SDS011;9745;50.828;4.378;2023-07-29T05:43:43;3.03;;;1.17;;
19221;SDS011;9745;50.828;4.378;2023-07-29T05:46:10;3.80;;;1.37;;
19221;SDS011;9745;50.828;4.378;2023-07-29T05:48:36;4.57;;;1.07;;
19221;SDS011;9745;50.828;4.378;2023-07-29T05:51:02;1.93;;;1.10;;
19221;SDS011;9745;50.828;4.378;2023-07-29T05:53:30;2.03;;;1.27;;
19221;SDS011;9745;50.828;4.378;2023-07-29T05:55:56;3.90;;;1.07;;
19221;SDS011;9745;50.828;4.378;2023-07-29T05:58:22;2.00;;;1.30;;
19221;SDS011;9745;50.828;4.378;2023-07-29T06:00:48;2.67;;;1.10;;
19221;SDS011;9745;50.828;4.378;2023-07-29T06:03:14;4.57;;;1.07;;
19221;SDS011;9745;50.828;4.378;2023-07-29T06:05:40;1.10;;;0.90;;
19221;SDS011;9745;50.828;4.378;2023-07-29T06:08:06;2.77;;;1.00;;
19221;SDS011;9745;50.828;4.378;2023-07-29T06:10:33;2.97;;;1.00;;
19221;SDS011;9745;50.828;4.378;2023-07-29T06:12:59;3.03;;;1.70;;
19221;SDS011;9745;50.828;4.378;2023-07-29T06:15:25;1.37;;;0.93;;
19221;SDS011;9745;50.828;4.378;2023-07-29T06:17:51;3.70;;;0.90;;
19221;SDS011;9745;50.828;4.378;2023-07-29T06:20:17;2.23;;;1.20;;
19221;SDS011;9745;50.828;4.378;2023-07-29T06:22:43;3.70;;;0.90;;
19221;SDS011;9745;50.828;4.378;2023-07-29T06:25:09;2.00;;;1.00;;
19221;SDS011;9745;50.828;4.378;2023-07-29T06:27:35;2.63;;;0.93;;
19221;SDS011;9745;50.828;4.378;2023-07-29T06:30:01;3.13;;;0.90;;
19221;SDS011;9745;50.828;4.378;2023-07-29T06:32:27;1.33;;;1.00;;
19221;SDS011;9745;50.828;4.378;2023-07-29T06:34:53;1.47;;;1.00;;
19221;SDS011;9745;50.828;4.378;2023-07-29T06:37:20;2.30;;;1.03;;
19221;SDS011;9745;50.828;4.378;2023-07-29T06:39:46;2.17;;;1.00;;
19221;SDS011;9745;50.828;4.378;2023-07-29T06:42:12;3.43;;;1.20;;
19221;SDS011;9745;50.828;4.378;2023-07-29T06:44:39;2.43;;;1.10;;
19221;SDS011;9745;50.828;4.378;2023-07-29T06:47:05;1.80;;;0.80;;
19221;SDS011;9745;50.828;4.378;2023-07-29T06:49:32;2.77;;;1.00;;
19221;SDS011;9745;50.828;4.378;2023-07-29T06:51:58;3.53;;;1.27;;
19221;SDS011;9745;50.828;4.378;2023-07-29T06:54:24;4.47;;;1.17;;
19221;SDS011;9745;50.828;4.378;2023-07-29T06:56:53;2.40;;;1.00;;
19221;SDS011;9745;50.828;4.378;2023-07-29T06:59:19;3.43;;;1.07;;
19221;SDS011;9745;50.828;4.378;2023-07-29T07:01:45;3.23;;;1.20;;
19221;SDS011;9745;50.828;4.378;2023-07-29T07:04:11;4.70;;;1.20;;
19221;SDS011;9745;50.828;4.378;2023-07-29T07:06:38;3.87;;;0.90;;
19221;SDS011;9745;50.828;4.378;2023-07-29T07:09:04;1.90;;;1.00;;
19221;SDS011;9745;50.828;4.378;2023-07-29T07:11:30;4.57;;;1.27;;
19221;SDS011;9745;50.828;4.378;2023-07-29T07:13:56;3.10;;;1.13;;
19221;SDS011;9745;50.828;4.378;2023-07-29T07:16:22;1.77;;;0.93;;
19221;SDS011;9745;50.828;4.378;2023-07-29T07:18:48;2.87;;;0.90;;
19221;SDS011;9745;50.828;4.378;2023-07-29T07:21:14;3.13;;;1.20;;
19221;SDS011;9745;50.828;4.378;2023-07-29T07:23:40;1.80;;;1.00;;
19221;SDS011;9745;50.828;4.378;2023-07-29T07:26:06;3.23;;;1.10;;
19221;SDS011;9745;50.828;4.378;2023-07-29T07:28:32;3.53;;;1.07;;
19221;SDS011;9745;50.828;4.378;2023-07-29T07:30:58;2.50;;;1.10;;
19221;SDS011;9745;50.828;4.378;2023-07-29T07:33:24;1.33;;;1.00;;
19221;SDS011;9745;50.828;4.378;2023-07-29T07:35:50;1.30;;;1.17;;
19221;SDS011;9745;50.828;4.378;2023-07-29T07:38:16;1.07;;;0.90;;
19221;SDS011;9745;50.828;4.378;2023-07-29T07:40:42;3.73;;;1.00;;
19221;SDS011;9745;50.828;4.378;2023-07-29T07:43:08;1.50;;;1.13;;
19221;SDS011;9745;50.828;4.378;2023-07-29T07:45:34;1.20;;;0.90;;
19221;SDS011;9745;50.828;4.378;2023-07-29T07:48:00;2.90;;;1.13;;
19221;SDS011;9745;50.828;4.378;2023-07-29T07:50:29;3.20;;;1.20;;
19221;SDS011;9745;50.828;4.378;2023-07-29T07:52:54;2.20;;;1.00;;
19221;SDS011;9745;50.828;4.378;2023-07-29T07:55:20;2.73;;;1.10;;
19221;SDS011;9745;50.828;4.378;2023-07-29T07:57:47;1.80;;;0.90;;
19221;SDS011;9745;50.828;4.378;2023-07-29T08:00:13;3.30;;;1.10;;
19221;SDS011;9745;50.828;4.378;2023-07-29T08:02:40;3.83;;;1.00;;
19221;SDS011;9745;50.828;4.378;2023-07-29T08:05:06;2.00;;;1.10;;
19221;SDS011;9745;50.828;4.378;2023-07-29T08:07:33;1.87;;;1.00;;
19221;SDS011;9745;50.828;4.378;2023-07-29T08:09:59;1.47;;;0.70;;
19221;SDS011;9745;50.828;4.378;2023-07-29T08:12:25;3.37;;;0.80;;
19221;SDS011;9745;50.828;4.378;2023-07-29T08:14:51;2.40;;;0.70;;
19221;SDS011;9745;50.828;4.378;2023-07-29T08:17:17;3.20;;;1.10;;
19221;SDS011;9745;50.828;4.378;2023-07-29T08:19:43;1.00;;;0.70;;
19221;SDS011;9745;50.828;4.378;2023-07-29T08:22:09;1.60;;;0.90;;
19221;SDS011;9745;50.828;4.378;2023-07-29T08:24:35;1.87;;;0.93;;
19221;SDS011;9745;50.828;4.378;2023-07-29T08:27:01;1.40;;;0.80;;
19221;SDS011;9745;50.828;4.378;2023-07-29T08:29:27;4.50;;;0.90;;
19221;SDS011;9745;50.828;4.378;2023-07-29T08:31:53;1.63;;;1.00;;
19221;SDS011;9745;50.828;4.378;2023-07-29T08:34:20;2.37;;;1.00;;
19221;SDS011;9745;50.828;4.378;2023-07-29T08:36:46;2.07;;;0.73;;
19221;SDS011;9745;50.828;4.378;2023-07-29T08:39:12;3.10;;;1.00;;
19221;SDS011;9745;50.828;4.378;2023-07-29T08:41:45;1.90;;;0.90;;
19221;SDS011;9745;50.828;4.378;2023-07-29T08:44:12;1.33;;;0.87;;
19221;SDS011;9745;50.828;4.378;2023-07-29T08:46:41;3.97;;;1.00;;
19221;SDS011;9745;50.828;4.378;2023-07-29T08:49:07;4.67;;;1.07;;
19221;SDS011;9745;50.828;4.378;2023-07-29T08:51:33;1.37;;;0.70;;
19221;SDS011;9745;50.828;4.378;2023-07-29T08:54:00;1.73;;;0.70;;
19221;SDS011;9745;50.828;4.378;2023-07-29T08:56:27;2.83;;;1.30;;
19221;SDS011;9745;50.828;4.378;2023-07-29T08:58:55;2.67;;;1.03;;
19221;SDS011;9745;50.828;4.378;2023-07-29T09:01:21;1.30;;;0.98;;
19221;SDS011;9745;50.828;4.378;2023-07-29T09:03:47;2.72;;;1.10;;
19221;SDS011;9745;50.828;4.378;2023-07-29T09:06:13;1.92;;;1.08;;
19221;SDS011;9745;50.828;4.378;2023-07-29T09:08:39;1.27;;;0.80;;
19221;SDS011;9745;50.828;4.378;2023-07-29T09:11:05;1.80;;;0.85;;
19221;SDS011;9745;50.828;4.378;2023-07-29T09:13:31;1.40;;;0.82;;
19221;SDS011;9745;50.828;4.378;2023-07-29T09:15:57;1.05;;;0.80;;
19221;SDS011;9745;50.828;4.378;2023-07-29T09:18:25;1.45;;;1.00;;
19221;SDS011;9745;50.828;4.378;2023-07-29T09:20:52;2.58;;;0.90;;
19221;SDS011;9745;50.828;4.378;2023-07-29T09:23:19;1.20;;;1.02;;
19221;SDS011;9745;50.828;4.378;2023-07-29T09:25:47;1.58;;;1.00;;
19221;SDS011;9745;50.828;4.378;2023-07-29T09:28:14;3.75;;;1.13;;
19221;SDS011;9745;50.828;4.378;2023-07-29T09:30:41;2.83;;;0.95;;
19221;SDS011;9745;50.828;4.378;2023-07-29T09:33:08;1.58;;;1.00;;
19221;SDS011;9745;50.828;4.378;2023-07-29T09:35:35;2.17;;;1.25;;
19221;SDS011;9745;50.828;4.378;2023-07-29T09:38:01;1.98;;;1.00;;
19221;SDS011;9745;50.828;4.378;2023-07-29T09:40:27;2.20;;;1.10;;
19221;SDS011;9745;50.828;4.378;2023-07-29T09:42:59;2.00;;;0.98;;
19221;SDS011;9745;50.828;4.378;2023-07-29T09:45:25;1.70;;;1.00;;
19221;SDS011;9745;50.828;4.378;2023-07-29T09:47:52;2.77;;;1.10;;
19221;SDS011;9745;50.828;4.378;2023-07-29T09:50:19;2.20;;;1.43;;
19221;SDS011;9745;50.828;4.378;2023-07-29T09:52:45;1.23;;;1.00;;
19221;SDS011;9745;50.828;4.378;2023-07-29T09:55:13;1.30;;;1.10;;
19221;SDS011;9745;50.828;4.378;2023-07-29T09:57:42;1.50;;;1.10;;
19221;SDS011;9745;50.828;4.378;2023-07-29T10:00:10;2.60;;;1.07;;
19221;SDS011;9745;50.828;4.378;2023-07-29T10:02:40;1.47;;;0.87;;
19221;SDS011;9745;50.828;4.378;2023-07-29T10:05:07;1.80;;;1.00;;
19221;SDS011;9745;50.828;4.378;2023-07-29T10:07:36;2.43;;;1.20;;
19221;SDS011;9745;50.828;4.378;2023-07-29T10:10:06;3.10;;;1.00;;
19221;SDS011;9745;50.828;4.378;2023-07-29T10:12:32;3.10;;;1.40;;
19221;SDS011;9745;50.828;4.378;2023-07-29T10:14:58;5.13;;;1.00;;
19221;SDS011;9745;50.828;4.378;2023-07-29T10:17:25;2.30;;;1.43;;
19221;SDS011;9745;50.828;4.378;2023-07-29T10:19:51;2.40;;;1.10;;
19221;SDS011;9745;50.828;4.378;2023-07-29T10:22:18;2.70;;;1.20;;
19221;SDS011;9745;50.828;4.378;2023-07-29T10:24:45;1.70;;;1.10;;
19221;SDS011;9745;50.828;4.378;2023-07-29T10:27:12;2.27;;;1.10;;
19221;SDS011;9745;50.828;4.378;2023-07-29T10:29:42;2.47;;;1.67;;
19221;SDS011;9745;50.828;4.378;2023-07-29T10:32:09;2.23;;;1.30;;
19221;SDS011;9745;50.828;4.378;2023-07-29T10:34:36;3.17;;;1.40;;
19221;SDS011;9745;50.828;4.378;2023-07-29T10:37:03;3.00;;;1.50;;
19221;SDS011;9745;50.828;4.378;2023-07-29T10:39:38;3.73;;;1.40;;
19221;SDS011;9745;50.828;4.378;2023-07-29T10:42:07;2.87;;;1.30;;
19221;SDS011;9745;50.828;4.378;2023-07-29T10:49:39;2.63;;;1.77;;
19221;SDS011;9745;50.828;4.378;2023-07-29T10:52:06;1.83;;;1.50;;
19221;SDS011;9745;50.828;4.378;2023-07-29T10:54:41;1.43;;;1.20;;
19221;SDS011;9745;50.828;4.378;2023-07-29T10:57:07;1.77;;;1.50;;
19221;SDS011;9745;50.828;4.378;2023-07-29T10:59:34;1.63;;;1.47;;
19221;SDS011;9745;50.828;4.378;2023-07-29T11:02:00;4.13;;;1.80;;
19221;SDS011;9745;50.828;4.378;2023-07-29T11:04:29;3.53;;;2.20;;
19221;SDS011;9745;50.828;4.378;2023-07-29T11:09:40;3.00;;;1.80;;
19221;SDS011;9745;50.828;4.378;2023-07-29T11:14:51;2.13;;;1.83;;
19221;SDS011;9745;50.828;4.378;2023-07-29T11:17:17;2.57;;;1.83;;
19221;SDS011;9745;50.828;4.378;2023-07-29T11:19:43;3.07;;;2.00;;
19221;SDS011;9745;50.828;4.378;2023-07-29T11:22:10;2.53;;;1.57;;
19221;SDS011;9745;50.828;4.378;2023-07-29T11:24:37;2.27;;;1.40;;
19221;SDS011;9745;50.828;4.378;2023-07-29T11:27:03;3.43;;;1.47;;
19221;SDS011;9745;50.828;4.378;2023-07-29T11:29:29;4.37;;;1.20;;
19221;SDS011;9745;50.828;4.378;2023-07-29T11:31:55;1.30;;;1.20;;
19221;SDS011;9745;50.828;4.378;2023-07-29T11:34:30;1.70;;;1.03;;
19221;SDS011;9745;50.828;4.378;2023-07-29T11:36:56;2.70;;;1.10;;
19221;SDS011;9745;50.828;4.378;2023-07-29T11:39:22;1.43;;;1.23;;
19221;SDS011;9745;50.828;4.378;2023-07-29T11:41:48;1.67;;;1.40;;
19221;SDS011;9745;50.828;4.378;2023-07-29T11:44:18;2.90;;;1.20;;
19221;SDS011;9745;50.828;4.378;2023-07-29T11:46:44;2.10;;;1.20;;
19221;SDS011;9745;50.828;4.378;2023-07-29T11:49:10;1.53;;;1.37;;
19221;SDS011;9745;50.828;4.378;2023-07-29T11:51:36;1.30;;;0.97;;
19221;SDS011;9745;50.828;4.378;2023-07-29T11:54:02;2.43;;;1.50;;
19221;SDS011;9745;50.828;4.378;2023-07-29T11:56:29;1.50;;;1.20;;
19221;SDS011;9745;50.828;4.378;2023-07-29T11:58:58;3.23;;;1.23;;
19221;SDS011;9745;50.828;4.378;2023-07-29T12:01:24;1.63;;;1.20;;
19221;SDS011;9745;50.828;4.378;2023-07-29T12:03:50;2.43;;;1.07;;
19221;SDS011;9745;50.828;4.378;2023-07-29T12:06:16;1.90;;;1.40;;
19221;SDS011;9745;50.828;4.378;2023-07-29T12:08:42;2.33;;;1.60;;
19221;SDS011;9745;50.828;4.378;2023-07-29T12:11:08;2.13;;;1.63;;
19221;SDS011;9745;50.828;4.378;2023-07-29T12:13:38;1.50;;;1.30;;
19221;SDS011;9745;50.828;4.378;2023-07-29T12:16:04;1.63;;;1.50;;
19221;SDS011;9745;50.828;4.378;2023-07-29T12:18:30;4.43;;;2.40;;
19221;SDS011;9745;50.828;4.378;2023-07-29T12:20:56;3.00;;;1.93;;
19221;SDS011;9745;50.828;4.378;2023-07-29T12:23:25;3.80;;;2.20;;
19221;SDS011;9745;50.828;4.378;2023-07-29T12:25:56;2.93;;;2.10;;
19221;SDS011;9745;50.828;4.378;2023-07-29T12:28:22;2.47;;;2.00;;
19221;SDS011;9745;50.828;4.378;2023-07-29T12:30:53;1.83;;;1.60;;
19221;SDS011;9745;50.828;4.378;2023-07-29T12:33:32;2.17;;;1.80;;
19221;SDS011;9745;50.828;4.378;2023-07-29T12:35:58;3.27;;;1.80;;
19221;SDS011;9745;50.828;4.378;2023-07-29T12:38:27;2.90;;;1.83;;
19221;SDS011;9745;50.828;4.378;2023-07-29T12:40:53;2.00;;;1.47;;
19221;SDS011;9745;50.828;4.378;2023-07-29T12:43:19;1.70;;;1.60;;
19221;SDS011;9745;50.828;4.378;2023-07-29T12:45:45;2.80;;;1.50;;
19221;SDS011;9745;50.828;4.378;2023-07-29T12:48:11;2.40;;;2.00;;
19221;SDS011;9745;50.828;4.378;2023-07-29T12:50:38;2.80;;;2.00;;
19221;SDS011;9745;50.828;4.378;2023-07-29T12:53:04;3.07;;;2.20;;
19221;SDS011;9745;50.828;4.378;2023-07-29T12:55:30;3.20;;;2.30;;
19221;SDS011;9745;50.828;4.378;2023-07-29T12:57:56;2.13;;;1.90;;
19221;SDS011;9745;50.828;4.378;2023-07-29T13:00:24;2.17;;;1.60;;
19221;SDS011;9745;50.828;4.378;2023-07-29T13:02:50;2.40;;;1.60;;
19221;SDS011;9745;50.828;4.378;2023-07-29T13:05:16;3.47;;;1.83;;
19221;SDS011;9745;50.828;4.378;2023-07-29T13:07:42;3.43;;;1.80;;
19221;SDS011;9745;50.828;4.378;2023-07-29T13:10:08;2.30;;;1.77;;
19221;SDS011;9745;50.828;4.378;2023-07-29T13:12:34;2.13;;;1.67;;
19221;SDS011;9745;50.828;4.378;2023-07-29T13:15:02;4.27;;;2.00;;
19221;SDS011;9745;50.828;4.378;2023-07-29T13:17:28;2.80;;;1.80;;
19221;SDS011;9745;50.828;4.378;2023-07-29T13:19:54;3.43;;;1.57;;
19221;SDS011;9745;50.828;4.378;2023-07-29T13:22:20;1.70;;;1.60;;
19221;SDS011;9745;50.828;4.378;2023-07-29T13:24:46;1.77;;;1.67;;
19221;SDS011;9745;50.828;4.378;2023-07-29T13:27:12;2.93;;;2.03;;
19221;SDS011;9745;50.828;4.378;2023-07-29T13:29:39;4.30;;;1.50;;
19221;SDS011;9745;50.828;4.378;2023-07-29T13:32:05;2.60;;;2.13;;
19221;SDS011;9745;50.828;4.378;2023-07-29T13:34:31;2.77;;;2.10;;
19221;SDS011;9745;50.828;4.378;2023-07-29T13:36:59;2.60;;;1.83;;
19221;SDS011;9745;50.828;4.378;2023-07-29T13:39:25;2.13;;;1.90;;
19221;SDS011;9745;50.828;4.378;2023-07-29T13:41:52;2.43;;;1.47;;
19221;SDS011;9745;50.828;4.378;2023-07-29T13:44:18;2.03;;;1.53;;
19221;SDS011;9745;50.828;4.378;2023-07-29T13:46:44;2.77;;;1.50;;
19221;SDS011;9745;50.828;4.378;2023-07-29T13:49:10;2.07;;;1.57;;
19221;SDS011;9745;50.828;4.378;2023-07-29T13:51:36;1.80;;;1.33;;
19221;SDS011;9745;50.828;4.378;2023-07-29T13:54:02;2.40;;;1.10;;
19221;SDS011;9745;50.828;4.378;2023-07-29T13:56:28;1.20;;;1.10;;
19221;SDS011;9745;50.828;4.378;2023-07-29T13:58:54;2.37;;;1.00;;
19221;SDS011;9745;50.828;4.378;2023-07-29T14:01:20;1.83;;;1.40;;
19221;SDS011;9745;50.828;4.378;2023-07-29T14:03:46;1.67;;;1.10;;
19221;SDS011;9745;50.828;4.378;2023-07-29T14:06:12;1.10;;;0.90;;
19221;SDS011;9745;50.828;4.378;2023-07-29T14:08:38;1.63;;;1.13;;
19221;SDS011;9745;50.828;4.378;2023-07-29T14:11:06;1.10;;;1.00;;
19221;SDS011;9745;50.828;4.378;2023-07-29T14:13:32;1.90;;;0.80;;
19221;SDS011;9745;50.828;4.378;2023-07-29T14:16:01;1.20;;;1.00;;
19221;SDS011;9745;50.828;4.378;2023-07-29T14:18:27;1.17;;;1.00;;
19221;SDS011;9745;50.828;4.378;2023-07-29T14:20:53;1.20;;;0.83;;
19221;SDS011;9745;50.828;4.378;2023-07-29T14:23:19;1.10;;;0.90;;
19221;SDS011;9745;50.828;4.378;2023-07-29T14:25:45;2.50;;;1.10;;
19221;SDS011;9745;50.828;4.378;2023-07-29T14:28:12;1.33;;;1.00;;
19221;SDS011;9745;50.828;4.378;2023-07-29T14:30:38;1.10;;;0.97;;
19221;SDS011;9745;50.828;4.378;2023-07-29T14:33:06;1.67;;;1.07;;
19221;SDS011;9745;50.828;4.378;2023-07-29T14:35:32;1.43;;;0.90;;
19221;SDS011;9745;50.828;4.378;2023-07-29T14:37:58;1.20;;;0.97;;
19221;SDS011;9745;50.828;4.378;2023-07-29T14:40:24;1.33;;;0.90;;
19221;SDS011;9745;50.828;4.378;2023-07-29T14:42:50;1.43;;;1.00;;
19221;SDS011;9745;50.828;4.378;2023-07-29T14:45:16;1.63;;;1.10;;
19221;SDS011;9745;50.828;4.378;2023-07-29T14:47:42;1.13;;;1.03;;
19221;SDS011;9745;50.828;4.378;2023-07-29T14:50:08;1.20;;;0.80;;
19221;SDS011;9745;50.828;4.378;2023-07-29T14:52:34;2.03;;;1.00;;
19221;SDS011;9745;50.828;4.378;2023-07-29T14:55:00;1.60;;;1.20;;
19221;SDS011;9745;50.828;4.378;2023-07-29T14:57:26;3.23;;;1.23;;
19221;SDS011;9745;50.828;4.378;2023-07-29T14:59:52;1.80;;;1.20;;
19221;SDS011;9745;50.828;4.378;2023-07-29T15:02:18;2.83;;;1.20;;
19221;SDS011;9745;50.828;4.378;2023-07-29T15:04:44;1.47;;;1.10;;
19221;SDS011;9745;50.828;4.378;2023-07-29T15:07:10;1.30;;;1.00;;
19221;SDS011;9745;50.828;4.378;2023-07-29T15:09:36;3.80;;;1.00;;
19221;SDS011;9745;50.828;4.378;2023-07-29T15:12:02;1.03;;;0.93;;
19221;SDS011;9745;50.828;4.378;2023-07-29T15:14:28;1.80;;;1.13;;